Time;durP1;ratioP1;P1;durP2;ratioP2;P2;SDS_P1;SDS_P2;PMS_P1;PMS_P2;Temp;Humidity;BMP_temperature;BMP_pressure;BME280_temperature;BME280_humidity;BME280_pressure;Samples;Min_cycle;Max_cycle;Signal;HPM_P1;HPM_P2
2022/06/12 00:00:10;;;;;;;9.98;5.82;;;;;14.60;96962.00;;;;8272961;28;20209;-69
2022/06/12 00:04:13;;;;;;;10.50;5.70;;;;;14.50;96964.00;;;;8277367;28;20245;-70
2022/06/12 00:08:19;;;;;;;11.73;5.45;;;;;14.50;96963.00;;;;8272363;28;20258;-69
2022/06/12 00:12:22;;;;;;;14.25;5.22;;;;;14.50;96965.00;;;;8274170;28;20220;-68
2022/06/12 00:16:27;;;;;;;9.00;5.30;;;;;14.40;96962.00;;;;8284234;28;20239;-69
2022/06/12 00:20:30;;;;;;;5.70;5.10;;;;;14.40;96965.00;;;;8275793;28;20215;-70
2022/06/12 00:24:35;;;;;;;7.90;5.35;;;;;14.30;96961.00;;;;8279488;28;20762;-70
2022/06/12 00:28:39;;;;;;;10.40;4.95;;;;;14.20;96960.00;;;;8278747;28;20200;-70
2022/06/12 00:32:46;;;;;;;11.68;5.85;;;;;14.10;96955.00;;;;8273614;28;20280;-69
2022/06/12 00:36:49;;;;;;;11.07;5.05;;;;;14.00;96952.00;;;;8271447;28;20565;-70
2022/06/12 00:40:53;;;;;;;7.97;5.05;;;;;14.00;96951.00;;;;8276909;28;20567;-69
2022/06/12 00:44:59;;;;;;;12.48;5.60;;;;;13.90;96954.00;;;;8270430;28;20229;-70
2022/06/12 00:49:02;;;;;;;9.82;5.30;;;;;13.80;96950.00;;;;8269303;28;20568;-70
2022/06/12 00:53:09;;;;;;;10.35;5.47;;;;;13.70;96951.00;;;;8285992;28;20208;-69
2022/06/12 00:57:14;;;;;;;9.10;5.65;;;;;13.70;96941.00;;;;8276079;28;20224;-69
2022/06/12 01:01:23;;;;;;;16.35;5.88;;;;;13.70;96941.00;;;;8271686;28;20211;-70
2022/06/12 01:09:51;;;;;;;13.23;5.97;;;;;13.60;96939.00;;;;8273829;28;20202;-69
2022/06/12 01:13:55;;;;;;;7.15;5.28;;;;;13.60;96935.00;;;;8279605;28;20202;-68
2022/06/12 01:18:00;;;;;;;12.50;6.25;;;;;13.50;96942.00;;;;8272318;28;20205;-69
2022/06/12 01:22:32;;;;;;;11.07;5.30;;;;;13.40;96939.00;;;;8262842;28;20209;-70
2022/06/12 01:27:00;;;;;;;16.33;5.95;;;;;13.30;96941.00;;;;8259864;28;20204;-70
2022/06/12 01:31:14;;;;;;;14.52;5.38;;;;;13.20;96936.00;;;;8281047;28;20309;-69
2022/06/12 01:35:23;;;;;;;7.25;5.45;;;;;13.20;96939.00;;;;8273012;28;20234;-70
2022/06/12 01:39:36;;;;;;;11.48;6.18;;;;;13.10;96935.00;;;;8271044;28;20310;-70
2022/06/12 01:43:44;;;;;;;13.15;6.55;;;;;13.00;96934.00;;;;8281767;28;20289;-69
2022/06/12 01:47:59;;;;;;;12.98;5.72;;;;;12.90;96931.00;;;;8274415;28;20319;-69
2022/06/12 01:52:07;;;;;;;9.95;5.63;;;;;12.90;96926.00;;;;8274301;28;20206;-71
2022/06/12 01:56:18;;;;;;;24.60;5.88;;;;;12.90;96932.00;;;;8274828;28;20241;-69
2022/06/12 02:00:24;;;;;;;11.95;6.45;;;;;12.90;96933.00;;;;8285874;28;20700;-69
2022/06/12 02:04:34;;;;;;;18.50;6.10;;;;;12.90;96923.00;;;;8276608;28;20241;-70
2022/06/12 02:08:41;;;;;;;12.07;5.63;;;;;12.80;96921.00;;;;8283774;28;20214;-69
2022/06/12 02:17:17;;;;;;;7.93;5.63;;;;;12.60;96931.00;;;;8288148;28;20233;-68
2022/06/12 02:21:25;;;;;;;12.32;5.80;;;;;12.60;96923.00;;;;8275055;28;20196;-69
2022/06/12 02:25:32;;;;;;;9.00;5.97;;;;;12.50;96927.00;;;;8279365;28;20289;-69
2022/06/12 02:29:40;;;;;;;14.70;6.68;;;;;12.60;96928.00;;;;8281066;28;20208;-70
2022/06/12 02:33:48;;;;;;;10.18;6.45;;;;;12.50;96923.00;;;;8287152;28;20199;-69
2022/06/12 02:37:57;;;;;;;11.68;5.80;;;;;12.50;96924.00;;;;8273121;28;20309;-69
2022/06/12 02:42:04;;;;;;;8.32;5.43;;;;;12.40;96924.00;;;;8277099;28;20654;-68
2022/06/12 02:46:13;;;;;;;11.25;5.88;;;;;12.30;96924.00;;;;8285322;28;20891;-70
2022/06/12 02:50:21;;;;;;;15.27;6.30;;;;;12.30;96919.00;;;;8288781;28;20677;-70
2022/06/12 02:54:40;;;;;;;9.57;6.72;;;;;12.20;96920.00;;;;8282331;28;20214;-69
2022/06/12 02:58:52;;;;;;;12.40;6.75;;;;;12.20;96914.00;;;;8276182;28;20205;-71
2022/06/12 03:03:01;;;;;;;14.15;7.55;;;;;12.20;96923.00;;;;8291270;23;20234;-71
2022/06/12 03:07:05;;;;;;;17.20;6.40;;;;;12.20;96924.00;;;;8281999;28;20214;-70
2022/06/12 03:11:16;;;;;;;15.55;7.07;;;;;12.20;96923.00;;;;8283530;28;20205;-69
2022/06/12 03:15:35;;;;;;;15.10;7.10;;;;;12.10;96926.00;;;;8288557;28;20228;-70
2022/06/12 03:19:44;;;;;;;14.30;6.78;;;;;12.10;96931.00;;;;8284526;28;20275;-69
2022/06/12 03:24:05;;;;;;;13.50;6.90;;;;;12.10;96930.00;;;;8283143;28;20313;-69
2022/06/12 03:28:15;;;;;;;13.80;7.05;;;;;12.10;96932.00;;;;8287142;28;20206;-69
2022/06/12 03:32:26;;;;;;;18.67;8.57;;;;;12.20;96931.00;;;;8287013;28;20202;-71
2022/06/12 03:36:34;;;;;;;11.27;6.63;;;;;12.40;96940.00;;;;8279604;28;20226;-72
2022/06/12 03:40:49;;;;;;;10.20;6.97;;;;;12.40;96939.00;;;;8284822;28;20210;-71
2022/06/12 03:45:01;;;;;;;13.95;7.72;;;;;12.50;96931.00;;;;8284202;28;20682;-70
2022/06/12 03:49:11;;;;;;;16.23;7.70;;;;;12.70;96927.00;;;;8283461;28;20233;-71
2022/06/12 03:53:20;;;;;;;10.93;7.20;;;;;12.90;96935.00;;;;8284410;28;20207;-71
2022/06/12 04:01:52;;;;;;;11.65;6.15;;;;;13.60;96927.00;;;;8274692;28;20312;-71
2022/06/12 04:05:59;;;;;;;10.88;6.22;;;;;14.10;96933.00;;;;8266693;28;20604;-70
2022/06/12 04:10:04;;;;;;;11.05;5.85;;;;;14.70;96939.00;;;;8278226;28;20356;-70
2022/06/12 04:14:14;;;;;;;11.88;6.35;;;;;15.30;96938.00;;;;8273897;28;20549;-70
2022/06/12 04:18:18;;;;;;;7.78;6.03;;;;;15.90;96933.00;;;;8282387;28;20323;-68
2022/06/12 04:22:25;;;;;;;7.28;5.45;;;;;16.50;96937.00;;;;8269885;28;20902;-69
2022/06/12 04:26:34;;;;;;;7.57;4.57;;;;;17.20;96935.00;;;;8273593;28;20244;-70
2022/06/12 04:30:39;;;;;;;12.48;5.40;;;;;17.70;96939.00;;;;8274414;28;20341;-70
2022/06/12 04:34:44;;;;;;;7.57;4.57;;;;;18.30;96932.00;;;;8273084;28;20576;-67
2022/06/12 04:38:47;;;;;;;10.00;5.40;;;;;18.90;96943.00;;;;8270516;28;20730;-70
2022/06/12 04:42:50;;;;;;;6.65;4.95;;;;;19.50;96943.00;;;;8264504;28;20234;-70
2022/06/12 04:46:56;;;;;;;9.88;5.30;;;;;19.80;96944.00;;;;8284915;28;20207;-68
2022/06/12 04:51:00;;;;;;;7.03;4.70;;;;;20.00;96961.00;;;;8271119;28;20580;-70
2022/06/12 04:55:04;;;;;;;6.05;4.43;;;;;20.10;96953.00;;;;8282415;28;20202;-70
2022/06/12 04:59:09;;;;;;;8.38;4.43;;;;;20.20;96954.00;;;;8273058;28;20313;-69
2022/06/12 05:03:12;;;;;;;8.68;4.53;;;;;20.20;96955.00;;;;8274285;28;20269;-71
2022/06/12 05:07:17;;;;;;;8.45;5.32;;;;;20.40;96951.00;;;;8274804;28;20246;-68
2022/06/12 05:11:21;;;;;;;5.68;4.53;;;;;20.40;96957.00;;;;8263369;28;20213;-72
2022/06/12 05:15:25;;;;;;;7.90;4.30;;;;;20.50;96951.00;;;;8280368;28;20271;-71
2022/06/12 05:19:33;;;;;;;5.20;4.20;;;;;20.70;96948.00;;;;8281794;28;20213;-69
2022/06/12 05:23:37;;;;;;;6.65;4.43;;;;;21.00;96949.00;;;;8283511;28;20194;-73
2022/06/12 05:27:41;;;;;;;4.75;3.97;;;;;21.30;96944.00;;;;8273665;28;20286;-68
2022/06/12 05:31:46;;;;;;;9.35;3.90;;;;;21.50;96941.00;;;;8284922;28;20206;-70
2022/06/12 05:35:50;;;;;;;5.53;4.03;;;;;21.80;96942.00;;;;8278160;28;20313;-70
2022/06/12 05:39:56;;;;;;;5.32;3.65;;;;;22.30;96939.00;;;;8285245;28;20205;-70
2022/06/12 05:43:59;;;;;;;5.38;3.53;;;;;23.00;96946.00;;;;8281672;28;20194;-69
2022/06/12 05:48:06;;;;;;;6.03;4.18;;;;;23.40;96940.00;;;;8284664;28;20198;-70
2022/06/12 05:52:10;;;;;;;6.28;3.70;;;;;24.10;96947.00;;;;8275183;28;20211;-69
2022/06/12 05:56:18;;;;;;;5.90;3.78;;;;;25.10;96951.00;;;;8281166;28;20718;-70
2022/06/12 06:00:23;;;;;;;5.28;3.65;;;;;25.60;96954.00;;;;8275788;28;20226;-68
2022/06/12 06:04:27;;;;;;;5.82;3.70;;;;;26.20;96948.00;;;;8281920;28;20245;-68
2022/06/12 06:08:30;;;;;;;4.10;3.65;;;;;26.70;96954.00;;;;8275895;28;20202;-71
2022/06/12 06:12:34;;;;;;;7.95;3.78;;;;;26.90;96948.00;;;;8272858;28;20289;-70
2022/06/12 06:16:39;;;;;;;3.58;3.28;;;;;27.30;96948.00;;;;8276317;28;20574;-69
2022/06/12 06:20:42;;;;;;;6.82;3.40;;;;;27.40;96954.00;;;;8277996;28;20637;-69
2022/06/12 06:24:47;;;;;;;3.92;3.50;;;;;27.70;96954.00;;;;8275698;28;20190;-70
2022/06/12 06:28:53;;;;;;;6.82;3.35;;;;;28.30;96952.00;;;;8276952;28;20201;-68
2022/06/12 06:32:57;;;;;;;4.53;3.65;;;;;28.80;96959.00;;;;8277103;28;20198;-68
2022/06/12 06:37:00;;;;;;;3.25;2.95;;;;;29.10;96968.00;;;;8280734;28;20224;-70
2022/06/12 06:41:04;;;;;;;3.33;3.03;;;;;29.20;96967.00;;;;8285617;28;20249;-70
2022/06/12 06:49:32;;;;;;;3.25;2.95;;;;;29.70;96959.00;;;;8280859;28;20221;-69
2022/06/12 06:53:35;;;;;;;3.33;2.92;;;;;29.90;96964.00;;;;8279686;28;20751;-69
2022/06/12 06:57:41;;;;;;;5.55;2.90;;;;;30.20;96964.00;;;;8277426;28;20701;-68
2022/06/12 07:01:46;;;;;;;4.32;2.88;;;;;30.50;96959.00;;;;8283862;28;20272;-69
2022/06/12 07:05:51;;;;;;;6.65;2.72;;;;;31.10;96966.00;;;;8278696;28;20241;-82
2022/06/12 07:09:55;;;;;;;5.38;2.95;;;;;31.30;96966.00;;;;8268520;28;20199;-81
2022/06/12 07:13:59;;;;;;;3.55;2.70;;;;;31.70;96965.00;;;;8277485;28;20225;-81
2022/06/12 07:18:04;;;;;;;3.90;2.50;;;;;32.00;96968.00;;;;8266543;28;20340;-72
2022/06/12 07:22:07;;;;;;;3.05;2.30;;;;;32.20;96966.00;;;;8276803;28;20285;-74
2022/06/12 07:26:19;;;;;;;2.78;2.55;;;;;32.60;96970.00;;;;8274241;28;20210;-74
2022/06/12 07:30:23;;;;;;;4.32;2.95;;;;;32.60;96962.00;;;;8281328;28;20210;-73
2022/06/12 07:34:28;;;;;;;2.67;2.47;;;;;32.90;96963.00;;;;8280065;28;20206;-72
2022/06/12 07:38:32;;;;;;;2.25;2.10;;;;;33.20;96967.00;;;;8269298;28;20264;-70
2022/06/12 07:42:35;;;;;;;2.75;2.40;;;;;33.70;96969.00;;;;8276147;28;20206;-71
2022/06/12 07:46:39;;;;;;;2.67;2.20;;;;;34.10;96971.00;;;;8272756;28;20828;-72
2022/06/12 07:50:44;;;;;;;2.70;2.45;;;;;34.30;96959.00;;;;8278106;28;20289;-71
2022/06/12 07:54:47;;;;;;;3.55;2.78;;;;;34.50;96963.00;;;;8279889;28;21142;-71
2022/06/12 07:58:50;;;;;;;3.28;2.70;;;;;34.90;96969.00;;;;8278659;28;20667;-74
2022/06/12 08:02:55;;;;;;;3.08;2.70;;;;;35.20;96962.00;;;;8278371;28;20340;-73
2022/06/12 08:07:00;;;;;;;2.50;2.30;;;;;35.70;96961.00;;;;8280801;28;20198;-74
2022/06/12 08:11:03;;;;;;;2.92;2.40;;;;;35.70;96965.00;;;;8269587;28;22154;-75
2022/06/12 08:15:09;;;;;;;4.50;2.70;;;;;35.70;96958.00;;;;8269850;28;20289;-70
2022/06/12 08:23:39;;;;;;;2.80;2.28;;;;;36.30;96962.00;;;;8272258;28;20205;-70
2022/06/12 08:27:43;;;;;;;3.88;2.13;;;;;36.40;96967.00;;;;8270824;28;20210;-69
2022/06/12 08:31:49;;;;;;;3.33;2.20;;;;;36.40;96966.00;;;;8279730;28;20716;-70
2022/06/12 08:35:53;;;;;;;2.90;2.30;;;;;36.60;96962.00;;;;8264749;28;20288;-70
2022/06/12 08:39:58;;;;;;;3.25;2.15;;;;;36.90;96957.00;;;;8282975;28;20794;-72
2022/06/12 08:44:08;;;;;;;2.60;2.17;;;;;37.30;96952.00;;;;8274328;28;20223;-72
2022/06/12 08:48:19;;;;;;;2.50;2.30;;;;;37.00;96952.00;;;;8279540;28;20221;-72
2022/06/12 08:52:27;;;;;;;2.20;2.00;;;;;36.70;96951.00;;;;8276478;28;20245;-72
2022/06/12 08:56:39;;;;;;;3.05;1.83;;;;;34.90;96954.00;;;;8281526;28;20225;-74
2022/06/12 09:00:43;;;;;;;1.70;1.60;;;;;33.60;96948.00;;;;8274477;28;20242;-73
2022/06/12 09:04:46;;;;;;;1.90;1.80;;;;;33.60;96944.00;;;;8280232;28;20196;-73
2022/06/12 09:08:58;;;;;;;1.80;1.70;;;;;34.70;96936.00;;;;8279806;28;20285;-76
2022/06/12 09:13:16;;;;;;;2.40;1.60;;;;;35.70;96930.00;;;;8282601;28;20204;-76
2022/06/12 09:17:29;;;;;;;1.73;1.63;;;;;35.90;96922.00;;;;8272357;28;20234;-76
2022/06/12 09:21:43;;;;;;;2.42;1.73;;;;;36.50;96931.00;;;;8278793;28;20321;-77
2022/06/12 09:25:52;;;;;;;2.80;2.15;;;;;37.00;96930.00;;;;8271192;28;20282;-75
2022/06/12 09:30:02;;;;;;;1.80;1.70;;;;;37.10;96911.00;;;;8266820;28;20567;-76
2022/06/12 09:34:18;;;;;;;1.92;1.83;;;;;35.90;96924.00;;;;8273670;28;20671;-77
2022/06/12 09:38:31;;;;;;;2.78;1.90;;;;;34.80;96919.00;;;;8265422;28;20321;-78
2022/06/12 09:42:45;;;;;;;1.77;1.67;;;;;33.80;96923.00;;;;8275893;28;20238;-76
2022/06/12 09:47:09;;;;;;;2.42;1.60;;;;;34.10;96919.00;;;;8271049;28;20199;-76
2022/06/12 09:51:53;;;;;;;1.77;1.67;;;;;35.60;96916.00;;;;8264081;28;20202;-78
2022/06/12 09:56:01;;;;;;;2.13;1.83;;;;;37.00;96914.00;;;;8278744;28;20206;-78
2022/06/12 10:00:09;;;;;;;3.38;1.77;;;;;38.30;96909.00;;;;8268645;28;20236;-81
2022/06/12 10:04:20;;;;;;;2.05;1.95;;;;;38.50;96916.00;;;;8278461;28;20249;-80
2022/06/12 10:08:33;;;;;;;1.73;1.70;;;;;37.80;96908.00;;;;8277264;28;20206;-79
2022/06/12 10:12:44;;;;;;;1.75;1.67;;;;;37.20;96905.00;;;;8276487;28;20202;-79
2022/06/12 10:16:52;;;;;;;2.00;1.80;;;;;37.70;96898.00;;;;8284797;28;20202;-76
2022/06/12 10:21:16;;;;;;;5.57;1.80;;;;;37.30;96893.00;;;;8265694;28;20238;-83
2022/06/12 10:25:22;;;;;;;4.20;1.75;;;;;37.80;96886.00;;;;8269764;28;20272;-82
2022/06/12 10:29:26;;;;;;;1.70;1.60;;;;;37.20;96888.00;;;;8271627;28;20793;-83
2022/06/12 10:33:32;;;;;;;2.97;2.08;;;;;37.20;96879.00;;;;8272135;28;20588;-81
2022/06/12 10:37:36;;;;;;;2.45;2.22;;;;;37.30;96878.00;;;;8279849;28;20659;-78
2022/06/12 10:41:46;;;;;;;7.07;4.82;;;;;37.50;96876.00;;;;8276553;28;20210;-81
2022/06/12 10:45:59;;;;;;;9.30;6.28;;;;;38.10;96871.00;;;;8270695;28;20314;-76
2022/06/12 10:50:20;;;;;;;4.13;2.40;;;;;38.10;96866.00;;;;8263172;28;20195;-78
2022/06/12 10:54:29;;;;;;;4.93;3.83;;;;;37.50;96852.00;;;;8275351;28;20230;-78
2022/06/12 10:59:15;;;;;;;9.85;7.45;;;;;38.70;96858.00;;;;8274378;28;20261;-77
2022/06/12 11:03:23;;;;;;;4.50;4.07;;;;;39.80;96852.00;;;;8255200;28;20337;-76
2022/06/12 11:07:34;;;;;;;3.42;1.95;;;;;39.80;96855.00;;;;8270500;28;20658;-76
2022/06/12 11:11:54;;;;;;;1.75;1.73;;;;;39.70;96848.00;;;;8274433;28;20210;-77
2022/06/12 11:16:11;;;;;;;2.17;1.80;;;;;39.80;96843.00;;;;8269508;28;20273;-76
2022/06/12 11:20:26;;;;;;;2.03;1.80;;;;;38.50;96843.00;;;;8274655;28;20738;-76
2022/06/12 11:24:39;;;;;;;1.85;1.75;;;;;38.80;96834.00;;;;8265898;28;20548;-75
2022/06/12 11:28:52;;;;;;;2.22;2.00;;;;;39.50;96832.00;;;;8267444;28;20804;-74
2022/06/12 11:33:12;;;;;;;2.42;2.22;;;;;40.40;96829.00;;;;8273150;28;20199;-74
2022/06/12 11:37:40;;;;;;;2.35;2.20;;;;;41.20;96820.00;;;;8277943;28;20202;-76
2022/06/12 11:42:05;;;;;;;1.83;1.70;;;;;40.70;96823.00;;;;8281840;28;20202;-74
2022/06/12 11:46:28;;;;;;;1.80;1.70;;;;;38.80;96816.00;;;;8271605;28;20228;-78
2022/06/12 11:50:39;;;;;;;2.53;1.70;;;;;38.80;96807.00;;;;8284510;28;20579;-76
2022/06/12 11:54:56;;;;;;;1.70;1.60;;;;;39.30;96804.00;;;;8276677;28;20289;-75
2022/06/12 11:59:18;;;;;;;1.90;1.80;;;;;39.80;96797.00;;;;8276216;28;20230;-74
2022/06/12 12:03:47;;;;;;;1.90;1.80;;;;;40.20;96788.00;;;;8274067;28;20225;-75
2022/06/12 12:08:03;;;;;;;2.55;1.60;;;;;40.10;96791.00;;;;8271515;28;20202;-77
2022/06/12 12:12:10;;;;;;;2.10;1.98;;;;;39.40;96790.00;;;;8267444;28;20212;-78
2022/06/12 12:16:27;;;;;;;1.80;1.70;;;;;39.90;96781.00;;;;8272228;28;20649;-76
2022/06/12 12:20:36;;;;;;;2.50;1.77;;;;;40.40;96779.00;;;;8273392;28;20231;-77
2022/06/12 12:24:43;;;;;;;2.80;1.80;;;;;40.80;96774.00;;;;8225249;28;20599;-77
2022/06/12 12:28:50;;;;;;;1.75;1.65;;;;;41.00;96771.00;;;;8269006;28;20290;-78
2022/06/12 12:32:57;;;;;;;1.45;1.45;;;;;40.60;96779.00;;;;8265986;28;20645;-78
2022/06/12 12:41:27;;;;;;;2.17;1.90;;;;;40.70;96771.00;;;;8269674;28;20556;-78
2022/06/12 12:45:33;;;;;;;1.85;1.73;;;;;40.90;96767.00;;;;8278489;28;20320;-75
2022/06/12 12:49:46;;;;;;;5.57;1.77;;;;;41.10;96758.00;;;;8269157;28;20226;-81
2022/06/12 12:53:53;;;;;;;4.57;1.90;;;;;40.80;96759.00;;;;8273537;28;20532;-75
2022/06/12 12:57:59;;;;;;;3.00;1.90;;;;;39.70;96768.00;;;;8277174;28;20218;-79
2022/06/12 13:02:20;;;;;;;3.42;1.80;;;;;38.30;96760.00;;;;8275457;28;20628;-79
2022/06/12 13:06:36;;;;;;;1.70;1.60;;;;;37.90;96760.00;;;;8270543;28;20202;-76
2022/06/12 13:10:58;;;;;;;2.95;1.60;;;;;37.80;96751.00;;;;8264613;28;20203;-76
2022/06/12 13:15:25;;;;;;;2.40;1.80;;;;;37.90;96751.00;;;;8262389;28;20228;-79
2022/06/12 13:19:55;;;;;;;1.73;1.63;;;;;38.60;96742.00;;;;8268769;28;20329;-78
2022/06/12 13:24:26;;;;;;;2.80;2.20;;;;;38.40;96724.00;;;;8274168;28;20199;-68
2022/06/12 13:28:33;;;;;;;1.65;1.52;;;;;36.90;96719.00;;;;8254292;28;20297;-68
2022/06/12 13:32:36;;;;;;;1.95;1.85;;;;;37.10;96712.00;;;;8272680;28;20536;-70
2022/06/12 13:37:01;;;;;;;1.73;1.70;;;;;38.50;96710.00;;;;8283238;28;20249;-72
2022/06/12 13:41:08;;;;;;;3.00;1.63;;;;;39.80;96703.00;;;;8282763;28;20286;-71
2022/06/12 13:45:23;;;;;;;2.05;1.60;;;;;40.20;96704.00;;;;8273486;28;20241;-67
2022/06/12 13:49:38;;;;;;;1.65;1.52;;;;;39.20;96697.00;;;;8273879;28;20649;-67
2022/06/12 13:53:45;;;;;;;1.73;1.63;;;;;38.50;96700.00;;;;8277496;28;20246;-70
2022/06/12 13:57:52;;;;;;;2.65;1.73;;;;;38.30;96685.00;;;;8275946;28;20293;-71
2022/06/12 14:02:10;;;;;;;3.13;1.73;;;;;38.20;96681.00;;;;8266935;28;20642;-68
2022/06/12 14:06:21;;;;;;;2.55;1.80;;;;;37.00;96683.00;;;;8267668;28;20199;-71
2022/06/12 14:10:32;;;;;;;4.00;1.70;;;;;35.90;96674.00;;;;8264218;28;20226;-68
2022/06/12 14:14:38;;;;;;;1.95;1.75;;;;;35.00;96676.00;;;;8260591;28;20202;-70
2022/06/12 14:18:57;;;;;;;2.00;1.80;;;;;34.40;96678.00;;;;8253985;28;20206;-72
2022/06/12 14:23:20;;;;;;;5.75;1.70;;;;;34.70;96666.00;;;;8275732;28;20284;-69
2022/06/12 14:27:33;;;;;;;2.10;1.80;;;;;36.30;96663.00;;;;8270838;28;20194;-69
2022/06/12 14:31:41;;;;;;;3.70;1.90;;;;;37.60;96661.00;;;;8263188;28;20798;-67
2022/06/12 14:35:51;;;;;;;1.55;1.48;;;;;38.40;96651.00;;;;8265872;28;20229;-71
2022/06/12 14:39:58;;;;;;;1.75;1.65;;;;;37.60;96649.00;;;;8271638;28;20255;-69
2022/06/12 14:44:08;;;;;;;3.40;2.00;;;;;38.00;96654.00;;;;8260353;28;20562;-71
2022/06/12 14:48:17;;;;;;;1.52;1.42;;;;;38.60;96653.00;;;;8266144;28;20616;-68
2022/06/12 14:52:27;;;;;;;2.38;1.58;;;;;38.40;96647.00;;;;8259436;28;20883;-68
2022/06/12 14:56:37;;;;;;;1.45;1.35;;;;;38.90;96645.00;;;;8274777;28;20194;-75
2022/06/12 15:00:41;;;;;;;1.83;1.73;;;;;39.80;96635.00;;;;8271034;28;20232;-73
2022/06/12 15:04:45;;;;;;;4.38;1.42;;;;;39.90;96634.00;;;;8275974;28;20285;-70
2022/06/12 15:09:03;;;;;;;1.55;1.45;;;;;39.50;96623.00;;;;8280690;28;20279;-76
2022/06/12 15:13:07;;;;;;;2.17;1.50;;;;;39.00;96631.00;;;;8265240;28;20639;-70
2022/06/12 15:17:15;;;;;;;1.77;1.55;;;;;38.40;96623.00;;;;8269806;28;20839;-72
2022/06/12 15:21:24;;;;;;;2.13;1.65;;;;;38.40;96621.00;;;;8272806;28;21114;-71
2022/06/12 15:29:53;;;;;;;1.30;1.30;;;;;39.50;96608.00;;;;8268771;28;20212;-71
2022/06/12 15:33:59;;;;;;;1.67;1.58;;;;;39.30;96607.00;;;;8271508;28;20198;-69
2022/06/12 15:38:02;;;;;;;1.58;1.50;;;;;39.40;96608.00;;;;8267531;28;20209;-70
2022/06/12 15:42:15;;;;;;;1.52;1.40;;;;;39.80;96594.00;;;;8278513;28;20758;-72
2022/06/12 15:46:19;;;;;;;1.85;1.70;;;;;40.00;96588.00;;;;8270032;28;20289;-68
2022/06/12 15:50:23;;;;;;;1.65;1.55;;;;;39.50;96590.00;;;;8269317;28;20290;-70
2022/06/12 15:54:28;;;;;;;52.30;30.83;;;;;38.70;96582.00;;;;8269069;28;20202;-70
2022/06/12 15:58:36;;;;;;;3.88;1.95;;;;;38.50;96583.00;;;;8270679;28;20209;-69
2022/06/12 16:02:39;;;;;;;2.80;1.60;;;;;38.70;96578.00;;;;8267471;28;20248;-69
2022/06/12 16:06:55;;;;;;;3.20;1.48;;;;;39.00;96575.00;;;;8260520;28;20209;-74
2022/06/12 16:11:21;;;;;;;1.98;1.75;;;;;38.60;96566.00;;;;8277813;28;20207;-70
2022/06/12 16:15:43;;;;;;;2.25;1.77;;;;;39.00;96555.00;;;;8278115;28;20244;-71
2022/06/12 16:19:50;;;;;;;1.70;1.60;;;;;39.30;96556.00;;;;8270055;28;20225;-69
2022/06/12 16:23:54;;;;;;;1.80;1.70;;;;;39.70;96553.00;;;;8271630;28;20206;-69
2022/06/12 16:27:57;;;;;;;1.65;1.50;;;;;39.20;96555.00;;;;8266998;28;20582;-72
2022/06/12 16:32:03;;;;;;;1.67;1.58;;;;;38.60;96550.00;;;;8269746;28;20297;-74
2022/06/12 16:36:09;;;;;;;1.40;1.30;;;;;38.10;96547.00;;;;8271559;28;20217;-75
2022/06/12 16:40:20;;;;;;;1.80;1.40;;;;;37.50;96544.00;;;;8266803;28;20767;-71
2022/06/12 16:44:40;;;;;;;2.97;1.48;;;;;36.60;96539.00;;;;8279930;28;20213;-87
2022/06/12 16:48:46;;;;;;;1.63;1.52;;;;;35.70;96540.00;;;;8259346;28;20337;-74
2022/06/12 16:52:50;;;;;;;2.53;1.60;;;;;35.30;96539.00;;;;8272467;28;20294;-74
2022/06/12 16:57:02;;;;;;;2.35;1.95;;;;;35.90;96541.00;;;;8278801;28;20559;-77
2022/06/12 17:01:14;;;;;;;1.63;1.52;;;;;36.80;96538.00;;;;8283807;28;20662;-71
2022/06/12 17:05:45;;;;;;;1.90;1.60;;;;;37.50;96543.00;;;;8277687;28;21074;-71
2022/06/12 17:10:00;;;;;;;1.98;1.77;;;;;38.40;96535.00;;;;8279578;28;20218;-75
2022/06/12 17:14:04;;;;;;;2.25;1.80;;;;;38.90;96538.00;;;;8276486;28;20242;-75
2022/06/12 17:22:32;;;;;;;2.47;1.63;;;;;39.50;96532.00;;;;8283320;28;20233;-73
2022/06/12 17:26:36;;;;;;;1.60;1.50;;;;;38.90;96519.00;;;;8278353;28;20244;-74
2022/06/12 17:30:39;;;;;;;1.70;1.65;;;;;37.80;96524.00;;;;8291817;28;20211;-75
2022/06/12 17:34:42;;;;;;;3.45;1.80;;;;;36.70;96525.00;;;;8281136;28;20846;-72
2022/06/12 17:38:47;;;;;;;2.50;1.70;;;;;35.90;96535.00;;;;8286571;28;20735;-74
2022/06/12 17:42:50;;;;;;;2.08;1.83;;;;;35.40;96529.00;;;;8282267;28;20237;-74
2022/06/12 17:46:54;;;;;;;2.05;1.50;;;;;35.80;96524.00;;;;8275318;28;20288;-75
2022/06/12 17:50:57;;;;;;;2.20;1.90;;;;;36.10;96527.00;;;;8284502;28;20297;-75
2022/06/12 17:55:21;;;;;;;2.45;1.98;;;;;35.80;96523.00;;;;8282039;28;20632;-76
2022/06/12 17:59:26;;;;;;;2.20;1.60;;;;;35.00;96524.00;;;;8271560;28;20199;-76
2022/06/12 18:03:29;;;;;;;2.13;1.90;;;;;34.20;96518.00;;;;8276925;28;20250;-76
2022/06/12 18:07:33;;;;;;;2.63;1.90;;;;;33.30;96515.00;;;;8274651;28;20194;-74
2022/06/12 18:11:37;;;;;;;2.17;1.98;;;;;32.40;96520.00;;;;8291258;28;20632;-75
2022/06/12 18:20:01;;;;;;;1.73;1.63;;;;;30.80;96521.00;;;;8278713;28;20203;-74
2022/06/12 18:24:07;;;;;;;2.00;1.90;;;;;29.90;96519.00;;;;8272795;28;20207;-76
2022/06/12 18:28:12;;;;;;;2.30;2.10;;;;;29.20;96513.00;;;;8270536;28;20612;-74
2022/06/12 18:32:16;;;;;;;6.32;2.88;;;;;28.70;96519.00;;;;8299593;28;20668;-76
2022/06/12 18:36:28;;;;;;;3.03;2.72;;;;;28.10;96514.00;;;;8281484;28;20194;-75
2022/06/12 18:40:32;;;;;;;3.63;2.72;;;;;27.50;96510.00;;;;8281396;28;20249;-73
2022/06/12 18:44:36;;;;;;;6.95;2.83;;;;;27.10;96501.00;;;;8278041;28;20675;-77
2022/06/12 18:48:40;;;;;;;8.13;2.97;;;;;26.70;96495.00;;;;8272629;28;20229;-74
2022/06/12 18:52:43;;;;;;;3.10;2.88;;;;;26.30;96500.00;;;;8283125;28;20208;-75
2022/06/12 18:56:46;;;;;;;3.58;3.03;;;;;26.00;96491.00;;;;8266832;28;20208;-76
2022/06/12 19:00:51;;;;;;;3.28;2.60;;;;;25.90;96492.00;;;;8274487;28;20795;-75
2022/06/12 19:04:55;;;;;;;5.05;2.90;;;;;25.80;96498.00;;;;8275519;28;20249;-73
2022/06/12 19:08:59;;;;;;;3.80;3.00;;;;;25.70;96493.00;;;;8278163;28;20190;-74
2022/06/12 19:13:02;;;;;;;3.20;2.70;;;;;25.50;96492.00;;;;8274599;28;20820;-75
2022/06/12 19:17:06;;;;;;;2.95;2.30;;;;;25.20;96490.00;;;;8282786;28;20289;-76
2022/06/12 19:21:10;;;;;;;4.40;2.70;;;;;25.00;96488.00;;;;8265702;28;20218;-71
2022/06/12 19:25:15;;;;;;;4.63;2.72;;;;;24.80;96498.00;;;;8278421;28;20233;-74
2022/06/12 19:29:21;;;;;;;2.97;2.55;;;;;24.60;96504.00;;;;8282095;28;20305;-77
2022/06/12 19:33:26;;;;;;;2.90;2.60;;;;;24.40;96500.00;;;;8269241;28;20983;-72
2022/06/12 19:37:35;;;;;;;4.00;2.83;;;;;24.30;96510.00;;;;8270178;28;20207;-74
2022/06/12 19:41:47;;;;;;;6.10;2.97;;;;;24.10;96508.00;;;;8273105;28;20222;-77
2022/06/12 19:45:51;;;;;;;6.55;3.17;;;;;24.10;96509.00;;;;8262552;28;20565;-76
2022/06/12 19:49:58;;;;;;;3.47;2.78;;;;;24.00;96501.00;;;;8275700;28;20213;-74
2022/06/12 19:54:01;;;;;;;5.30;2.75;;;;;23.90;96502.00;;;;8271519;28;20237;-77
2022/06/12 19:58:05;;;;;;;3.60;2.60;;;;;23.70;96503.00;;;;8269209;28;20198;-76
2022/06/12 20:02:09;;;;;;;2.92;2.70;;;;;23.40;96494.00;;;;8275706;28;20880;-79
2022/06/12 20:10:36;;;;;;;2.92;2.67;;;;;23.00;96498.00;;;;8268134;28;20273;-73
2022/06/12 20:14:39;;;;;;;5.32;3.05;;;;;22.90;96495.00;;;;8269109;28;20194;-73
2022/06/12 20:18:42;;;;;;;6.82;3.28;;;;;22.80;96501.00;;;;8268812;28;20209;-73
2022/06/12 20:22:46;;;;;;;24.13;12.82;;;;;22.70;96487.00;;;;8281344;28;20262;-74
2022/06/12 20:26:50;;;;;;;4.95;3.90;;;;;22.70;96487.00;;;;8277558;28;20202;-73
2022/06/12 20:30:55;;;;;;;3.35;3.05;;;;;22.60;96483.00;;;;8275547;28;20289;-75
2022/06/12 20:34:58;;;;;;;6.00;3.00;;;;;22.50;96477.00;;;;8277654;28;20238;-74
2022/06/12 20:39:04;;;;;;;7.25;3.22;;;;;22.40;96490.00;;;;8275111;28;20302;-74
2022/06/12 20:43:07;;;;;;;13.52;3.92;;;;;21.70;96503.00;;;;8279268;28;20273;-74
2022/06/12 20:47:10;;;;;;;7.25;3.40;;;;;20.80;96472.00;;;;8259727;28;20195;-69
2022/06/12 20:51:13;;;;;;;8.93;4.35;;;;;20.40;96463.00;;;;8278786;28;20202;-68
2022/06/12 20:55:18;;;;;;;10.15;4.35;;;;;20.00;96475.00;;;;8280015;28;20751;-68
2022/06/12 20:59:22;;;;;;;8.60;4.55;;;;;19.70;96470.00;;;;8270551;28;20224;-68
2022/06/12 21:03:25;;;;;;;11.15;4.97;;;;;19.80;96471.00;;;;8276576;28;20312;-71
2022/06/12 21:07:28;;;;;;;10.48;5.53;;;;;19.90;96464.00;;;;8266135;28;20203;-69
2022/06/12 21:11:33;;;;;;;13.68;5.53;;;;;20.00;96474.00;;;;8264109;28;20264;-68
2022/06/12 21:15:36;;;;;;;7.90;4.72;;;;;19.90;96480.00;;;;8270715;28;20206;-69
2022/06/12 21:19:41;;;;;;;15.18;6.57;;;;;19.80;96466.00;;;;8266336;28;20206;-68
2022/06/12 21:23:47;;;;;;;12.90;6.45;;;;;19.60;96453.00;;;;8274914;28;20230;-70